createdAt,value
2023-03-05T00:01:08.449Z,54.49
2023-03-05T00:03:35.812Z,54.83
2023-03-05T00:06:02.836Z,55.04
2023-03-05T00:08:30.457Z,55.64
2023-03-05T00:11:02.742Z,56.27
2023-03-05T00:13:30.310Z,56.45
2023-03-05T00:15:57.096Z,56.75
2023-03-05T00:18:24.708Z,56.39
2023-03-05T00:20:51.341Z,56.27
2023-03-05T00:23:18.182Z,56.04
2023-03-05T00:25:46.157Z,56.17
2023-03-05T00:28:13.189Z,56.28
2023-03-05T00:30:40.894Z,57.01
2023-03-05T00:33:08.518Z,56.95
2023-03-05T00:35:43.659Z,57.21
2023-03-05T00:38:11.628Z,57.39
2023-03-05T00:40:40.107Z,57.53
2023-03-05T00:43:07.065Z,57.33
2023-03-05T00:45:33.787Z,57.19
2023-03-05T00:48:00.956Z,56.78
2023-03-05T00:50:27.885Z,56.96
2023-03-05T00:52:54.732Z,56.54
2023-03-05T00:55:21.791Z,56.12
2023-03-05T00:57:48.861Z,56.05
2023-03-05T01:00:16.400Z,55.83
2023-03-05T01:02:43.228Z,55.78
2023-03-05T01:05:14.190Z,55.50
2023-03-05T01:07:41.109Z,55.58
2023-03-05T01:10:08.968Z,55.35
2023-03-05T01:12:35.737Z,55.05
2023-03-05T01:15:04.290Z,55.05
2023-03-05T01:17:31.130Z,54.66
2023-03-05T01:19:57.900Z,54.86
2023-03-05T01:22:24.706Z,54.67
2023-03-05T01:24:51.557Z,54.90
2023-03-05T01:27:18.396Z,54.64
2023-03-05T01:29:45.138Z,54.70
2023-03-05T01:32:11.994Z,55.04
2023-03-05T01:34:39.025Z,55.52
2023-03-05T01:37:05.683Z,55.20
2023-03-05T01:39:32.513Z,55.60
2023-03-05T01:41:59.354Z,55.55
2023-03-05T01:44:28.361Z,55.59
2023-03-05T01:46:56.310Z,55.98
2023-03-05T01:49:40.864Z,56.42
2023-03-05T01:52:21.146Z,57.00
2023-03-05T01:54:53.090Z,56.80
2023-03-05T01:57:33.031Z,56.36
2023-03-05T02:00:05.661Z,56.36
2023-03-05T02:02:43.049Z,56.21
2023-03-05T02:05:15.520Z,56.62
2023-03-05T02:07:44.574Z,56.81
2023-03-05T02:10:16.470Z,56.45
2023-03-05T02:12:43.587Z,56.32
2023-03-05T02:15:11.660Z,56.54
2023-03-05T02:17:38.921Z,57.18
2023-03-05T02:20:10.280Z,57.00
2023-03-05T02:22:37.033Z,56.94
2023-03-05T02:25:16.272Z,56.96
2023-03-05T02:27:50.969Z,56.94
2023-03-05T02:30:18.830Z,57.03
2023-03-05T02:32:45.604Z,57.29
2023-03-05T02:35:12.999Z,57.00
2023-03-05T02:37:40.363Z,56.77
2023-03-05T02:40:10.140Z,56.72
2023-03-05T02:42:37.141Z,56.90
2023-03-05T02:45:05.627Z,57.05
2023-03-05T02:47:32.665Z,56.90
2023-03-05T02:49:59.613Z,57.07
2023-03-05T02:52:28.130Z,57.00
2023-03-05T02:54:54.936Z,57.04
2023-03-05T02:57:23.535Z,57.41
2023-03-05T02:59:50.826Z,57.17
2023-03-05T03:02:17.626Z,57.49
2023-03-05T03:04:45.281Z,57.43
2023-03-05T03:07:13.562Z,57.78
2023-03-05T03:09:42.354Z,57.42
2023-03-05T03:12:10.125Z,57.66
2023-03-05T03:14:40.645Z,57.68
2023-03-05T03:17:18.061Z,57.92
2023-03-05T03:19:45.819Z,58.22
2023-03-05T03:22:14.892Z,58.19
2023-03-05T03:24:43.064Z,58.46
2023-03-05T03:27:10.433Z,58.37
2023-03-05T03:29:37.382Z,58.14
2023-03-05T03:32:04.389Z,58.07
2023-03-05T03:34:31.157Z,58.37
2023-03-05T03:36:57.894Z,58.36
2023-03-05T03:39:24.960Z,58.31
2023-03-05T03:41:53.013Z,58.16
2023-03-05T03:44:20.686Z,57.83
2023-03-05T03:46:49.270Z,57.86
2023-03-05T03:49:22.599Z,57.61
2023-03-05T03:51:51.353Z,57.77
2023-03-05T03:54:18.813Z,58.15
2023-03-05T03:56:45.554Z,58.70
2023-03-05T03:59:13.823Z,58.45
2023-03-05T04:01:40.645Z,59.23
2023-03-05T04:04:08.454Z,59.63
2023-03-05T04:06:35.361Z,59.53
2023-03-05T04:09:02.389Z,59.20
2023-03-05T04:11:29.003Z,59.94
2023-03-05T04:13:55.650Z,60.25
2023-03-05T04:16:23.083Z,60.06
2023-03-05T04:18:50.147Z,60.08
2023-03-05T04:21:17.131Z,60.58
2023-03-05T04:23:44.098Z,60.21
2023-03-05T04:26:10.742Z,60.48
2023-03-05T04:28:37.693Z,60.31
2023-03-05T04:31:04.604Z,60.12
2023-03-05T04:33:31.783Z,60.06
2023-03-05T04:35:58.652Z,60.24
2023-03-05T04:38:25.351Z,60.25
2023-03-05T04:40:52.140Z,60.04
2023-03-05T04:43:18.839Z,59.95
2023-03-05T04:45:45.469Z,60.32
2023-03-05T04:48:12.436Z,60.10
2023-03-05T04:50:39.440Z,60.27
2023-03-05T04:53:06.226Z,60.10
2023-03-05T04:55:33.564Z,59.72
2023-03-05T04:58:00.401Z,60.02
2023-03-05T05:00:27.156Z,60.02
2023-03-05T05:02:54.051Z,60.09
2023-03-05T05:05:24.288Z,60.04
2023-03-05T05:07:58.339Z,60.03
2023-03-05T05:10:26.101Z,59.91
2023-03-05T05:12:53.473Z,60.10
2023-03-05T05:15:20.693Z,59.93
2023-03-05T05:17:48.283Z,60.13
2023-03-05T05:20:16.542Z,59.95
2023-03-05T05:22:44.054Z,59.79
2023-03-05T05:25:10.868Z,59.44
2023-03-05T05:27:39.524Z,59.29
2023-03-05T05:30:07.176Z,59.24
2023-03-05T05:32:34.860Z,59.03
2023-03-05T05:35:01.922Z,59.05
2023-03-05T05:37:30.068Z,59.41
2023-03-05T05:39:57.031Z,59.17
2023-03-05T05:42:24.794Z,59.05
2023-03-05T05:44:51.438Z,58.59
2023-03-05T05:47:18.771Z,58.71
2023-03-05T05:49:45.625Z,58.25
2023-03-05T05:52:13.694Z,58.24
2023-03-05T05:54:40.340Z,57.99
2023-03-05T05:57:07.395Z,57.92
2023-03-05T05:59:34.331Z,57.82
2023-03-05T06:02:01.174Z,57.66
2023-03-05T06:04:28.003Z,57.41
2023-03-05T06:06:54.760Z,57.32
2023-03-05T06:09:21.358Z,56.77
2023-03-05T06:11:48.077Z,56.46
2023-03-05T06:14:14.772Z,55.83
2023-03-05T06:16:41.660Z,55.81
2023-03-05T06:19:11.636Z,55.84
2023-03-05T06:21:38.617Z,55.37
2023-03-05T06:24:05.827Z,54.89
2023-03-05T06:26:32.770Z,54.37
2023-03-05T06:28:59.704Z,53.66
2023-03-05T06:31:27.893Z,53.54
2023-03-05T06:33:57.636Z,53.72
2023-03-05T06:36:25.488Z,53.44
2023-03-05T06:38:53.424Z,53.18
2023-03-05T06:41:24.483Z,52.73
2023-03-05T06:43:51.365Z,52.58
2023-03-05T06:46:27.527Z,52.69
2023-03-05T06:49:00.083Z,52.79
2023-03-05T06:51:31.303Z,52.65
2023-03-05T06:54:04.917Z,52.86
2023-03-05T06:56:32.601Z,52.80
2023-03-05T06:58:59.191Z,52.48
2023-03-05T07:01:26.085Z,52.51
2023-03-05T07:03:54.640Z,52.14
2023-03-05T07:06:22.204Z,52.47
2023-03-05T07:08:48.924Z,52.33
2023-03-05T07:11:20.399Z,52.20
2023-03-05T07:13:48.355Z,52.19
2023-03-05T07:16:17.948Z,52.36
2023-03-05T07:18:45.425Z,52.15
2023-03-05T07:21:18.723Z,51.74
2023-03-05T07:23:45.450Z,51.93
2023-03-05T07:26:12.818Z,51.56
2023-03-05T07:28:40.505Z,51.45
2023-03-05T07:31:11.650Z,51.30
2023-03-05T07:33:39.076Z,51.20
2023-03-05T07:36:10.320Z,50.66
2023-03-05T07:38:37.393Z,50.56
2023-03-05T07:41:11.576Z,48.97
2023-03-05T07:43:39.160Z,47.17
2023-03-05T07:46:07.602Z,45.72
2023-03-05T07:48:34.776Z,42.99
2023-03-05T07:51:02.890Z,42.01
2023-03-05T07:53:29.965Z,39.86
2023-03-05T07:55:57.458Z,40.30
2023-03-05T07:58:24.285Z,40.61
2023-03-05T08:00:51.038Z,40.65
2023-03-05T08:03:18.087Z,40.36
2023-03-05T08:05:45.032Z,40.98
2023-03-05T08:08:12.173Z,41.31
2023-03-05T08:10:39.427Z,41.43
2023-03-05T08:13:06.371Z,41.89
2023-03-05T08:15:33.738Z,42.04
2023-03-05T08:18:01.124Z,41.46
2023-03-05T08:20:27.894Z,41.31
2023-03-05T08:22:54.773Z,41.27
2023-03-05T08:25:22.308Z,40.97
2023-03-05T08:27:48.898Z,40.66
2023-03-05T08:30:21.128Z,40.44
2023-03-05T08:32:51.046Z,41.12
2023-03-05T08:35:17.700Z,40.97
2023-03-05T08:37:44.277Z,40.91
2023-03-05T08:40:11.972Z,40.20
2023-03-05T08:42:38.545Z,39.03
2023-03-05T08:45:05.971Z,39.60
2023-03-05T08:47:32.582Z,39.50
2023-03-05T08:49:59.154Z,39.17
2023-03-05T08:52:26.926Z,38.39
2023-03-05T08:54:53.642Z,38.23
2023-03-05T08:57:20.415Z,38.11
2023-03-05T08:59:47.294Z,38.13
2023-03-05T09:02:14.088Z,37.58
2023-03-05T09:04:40.936Z,36.06
2023-03-05T09:07:07.674Z,36.13
2023-03-05T09:09:34.516Z,35.85
2023-03-05T09:12:02.377Z,36.09
2023-03-05T09:14:29.253Z,35.14
2023-03-05T09:16:57.102Z,34.81
2023-03-05T09:19:27.009Z,34.33
2023-03-05T09:21:56.027Z,33.72
2023-03-05T09:24:23.750Z,33.33
2023-03-05T09:26:50.557Z,33.57
2023-03-05T09:29:17.340Z,33.09
2023-03-05T09:31:44.182Z,32.54
2023-03-05T09:34:11.792Z,32.92
2023-03-05T09:36:38.596Z,32.61
2023-03-05T09:39:06.462Z,31.29
2023-03-05T09:41:54.944Z,30.44
2023-03-05T09:44:30.725Z,30.48
2023-03-05T09:47:44.976Z,30.79
2023-03-05T09:50:31.953Z,30.69
2023-03-05T09:53:05.715Z,30.12
2023-03-05T09:55:39.866Z,29.81
2023-03-05T09:58:13.260Z,29.76
2023-03-05T10:00:49.695Z,29.78
2023-03-05T10:03:24.901Z,30.55
2023-03-05T10:05:59.931Z,30.87
2023-03-05T10:08:34.591Z,31.15
2023-03-05T10:11:10.384Z,31.10
2023-03-05T10:13:42.332Z,31.64
2023-03-05T10:16:34.259Z,32.15
2023-03-05T10:19:32.222Z,31.90
2023-03-05T10:22:18.772Z,31.82
2023-03-05T10:25:11.557Z,31.97
2023-03-05T10:27:58.889Z,31.90
2023-03-05T10:30:54.261Z,31.94
2023-03-05T10:33:26.898Z,31.61
2023-03-05T10:36:10.638Z,31.55
2023-03-05T10:38:52.227Z,31.47
2023-03-05T10:41:55.223Z,30.79
2023-03-05T10:44:44.107Z,31.16
2023-03-05T10:47:20.142Z,31.02
2023-03-05T10:49:52.748Z,30.80
2023-03-05T10:52:36.463Z,31.10
2023-03-05T10:55:15.301Z,30.91
2023-03-05T10:57:42.040Z,31.41
2023-03-05T11:00:23.603Z,31.60
2023-03-05T11:03:05.012Z,31.81
2023-03-05T11:05:45.559Z,31.87
2023-03-05T11:08:24.380Z,31.78
2023-03-05T11:11:09.858Z,31.39
2023-03-05T11:13:58.672Z,31.40
2023-03-05T11:16:29.811Z,31.26
2023-03-05T11:19:23.974Z,31.22
2023-03-05T11:22:15.568Z,31.05
2023-03-05T11:24:46.066Z,31.38
2023-03-05T11:27:35.266Z,31.64
2023-03-05T11:30:03.039Z,30.37
2023-03-05T11:32:30.867Z,30.34
2023-03-05T11:34:57.839Z,29.89
2023-03-05T11:37:26.839Z,29.97
2023-03-05T11:40:15.690Z,29.34
2023-03-05T11:42:43.286Z,28.96
2023-03-05T11:45:19.350Z,28.07
2023-03-05T11:47:52.328Z,26.49
2023-03-05T11:50:24.281Z,24.54
2023-03-05T11:52:55.200Z,23.01
2023-03-05T11:55:29.529Z,23.78
2023-03-05T11:58:04.959Z,24.31
2023-03-05T12:00:35.959Z,24.97
2023-03-05T12:03:11.130Z,25.30
2023-03-05T12:05:43.564Z,26.23
2023-03-05T12:08:15.353Z,26.20
2023-03-05T12:10:42.342Z,26.69
2023-03-05T12:13:22.529Z,26.87
2023-03-05T12:16:19.703Z,26.36
2023-03-05T12:19:09.483Z,26.19
2023-03-05T12:21:39.227Z,26.51
2023-03-05T12:24:26.706Z,26.37
2023-03-05T12:27:03.930Z,26.36
2023-03-05T12:29:30.633Z,26.63
2023-03-05T12:31:58.566Z,26.71
2023-03-05T12:34:40.668Z,26.32
2023-03-05T12:37:33.576Z,26.84
2023-03-05T12:40:20.000Z,27.12
2023-03-05T12:42:56.877Z,26.79
2023-03-05T12:45:30.864Z,27.41
2023-03-05T12:47:57.487Z,27.41
2023-03-05T12:50:27.286Z,28.19
2023-03-05T12:53:09.481Z,28.79
2023-03-05T12:55:48.094Z,29.03
2023-03-05T12:58:25.358Z,29.24
2023-03-05T13:00:56.505Z,29.56
2023-03-05T13:03:36.903Z,29.97
2023-03-05T13:06:06.104Z,29.89
2023-03-05T13:08:37.259Z,30.02
2023-03-05T13:11:18.186Z,30.57
2023-03-05T13:13:46.941Z,30.53
2023-03-05T13:16:28.571Z,30.36
2023-03-05T13:18:58.947Z,30.50
2023-03-05T13:21:31.266Z,30.62
2023-03-05T13:24:00.870Z,30.74
2023-03-05T13:26:38.177Z,31.03
2023-03-05T13:29:08.766Z,31.14
2023-03-05T13:31:39.943Z,31.05
2023-03-05T13:34:18.845Z,31.59
2023-03-05T13:36:55.759Z,31.68
2023-03-05T13:39:27.201Z,31.61
2023-03-05T13:42:16.970Z,31.80
2023-03-05T13:44:53.433Z,32.27
2023-03-05T13:47:22.103Z,33.13
2023-03-05T13:49:57.033Z,34.08
2023-03-05T13:52:29.410Z,35.33
2023-03-05T13:54:57.126Z,35.87
2023-03-05T13:57:40.202Z,36.07
2023-03-05T14:00:32.482Z,36.54
2023-03-05T14:03:08.889Z,37.75
2023-03-05T14:05:35.839Z,38.15
2023-03-05T14:08:02.990Z,38.42
2023-03-05T14:10:36.270Z,38.83
2023-03-05T14:13:06.375Z,39.25
2023-03-05T14:15:35.208Z,39.38
2023-03-05T14:18:11.146Z,39.39
2023-03-05T14:21:08.299Z,39.64
2023-03-05T14:23:42.980Z,39.00
2023-03-05T14:26:22.273Z,39.01
2023-03-05T14:29:17.186Z,39.51
2023-03-05T14:31:55.938Z,39.85
2023-03-05T14:34:32.290Z,39.89
2023-03-05T14:37:03.816Z,40.65
2023-03-05T14:39:49.393Z,40.54
2023-03-05T14:42:28.727Z,41.15
2023-03-05T14:44:57.967Z,41.14
2023-03-05T14:47:26.586Z,41.56
2023-03-05T14:49:54.295Z,41.33
2023-03-05T14:52:23.600Z,41.66
2023-03-05T14:54:51.403Z,41.90
2023-03-05T14:57:24.758Z,41.79
2023-03-05T14:59:52.016Z,42.12
2023-03-05T15:02:22.968Z,42.23
2023-03-05T15:04:49.672Z,41.85
2023-03-05T15:07:29.216Z,42.31
2023-03-05T15:09:57.338Z,42.27
2023-03-05T15:12:24.173Z,42.79
2023-03-05T15:14:55.283Z,42.82
2023-03-05T15:17:30.456Z,43.07
2023-03-05T15:19:57.355Z,43.43
2023-03-05T15:22:24.088Z,43.35
2023-03-05T15:24:50.726Z,43.75
2023-03-05T15:27:17.689Z,43.78
2023-03-05T15:29:44.386Z,44.27
2023-03-05T15:32:11.330Z,43.63
2023-03-05T15:34:38.318Z,43.88
2023-03-05T15:37:05.160Z,44.02
2023-03-05T15:39:32.099Z,43.96
2023-03-05T15:41:59.558Z,44.24
2023-03-05T15:44:27.007Z,44.11
2023-03-05T15:46:56.236Z,44.21
2023-03-05T15:49:24.102Z,44.06
2023-03-05T15:51:51.546Z,43.08
2023-03-05T15:54:18.790Z,43.30
2023-03-05T15:56:45.562Z,43.40
2023-03-05T15:59:14.121Z,43.14
2023-03-05T16:01:48.571Z,42.80
2023-03-05T16:04:17.072Z,43.02
2023-03-05T16:06:47.242Z,42.88
2023-03-05T16:09:15.324Z,42.30
2023-03-05T16:11:48.611Z,42.51
2023-03-05T16:14:22.781Z,42.70
2023-03-05T16:16:51.404Z,42.59
2023-03-05T16:19:19.275Z,42.85
2023-03-05T16:21:46.222Z,43.16
2023-03-05T16:24:13.584Z,42.93
2023-03-05T16:26:41.343Z,42.84
2023-03-05T16:29:08.498Z,42.80
2023-03-05T16:31:40.866Z,42.84
2023-03-05T16:34:07.919Z,42.61
2023-03-05T16:36:35.198Z,42.97
2023-03-05T16:39:04.055Z,43.04
2023-03-05T16:41:31.334Z,43.12
2023-03-05T16:43:58.882Z,43.20
2023-03-05T16:46:27.705Z,43.24
2023-03-05T16:48:54.606Z,43.62
2023-03-05T16:51:21.352Z,43.59
2023-03-05T16:53:48.410Z,43.34
2023-03-05T16:56:15.557Z,43.87
2023-03-05T16:58:42.173Z,44.02
2023-03-05T17:01:15.858Z,44.02
2023-03-05T17:03:43.514Z,43.75
2023-03-05T17:06:13.762Z,43.74
2023-03-05T17:08:42.148Z,44.11
2023-03-05T17:11:10.176Z,44.23
2023-03-05T17:13:37.120Z,43.98
2023-03-05T17:16:05.161Z,43.83
2023-03-05T17:18:32.480Z,43.91
2023-03-05T17:21:00.582Z,43.79
2023-03-05T17:23:27.999Z,44.24
2023-03-05T17:25:54.961Z,44.09
2023-03-05T17:28:21.803Z,43.63
2023-03-05T17:30:48.429Z,43.92
2023-03-05T17:33:15.216Z,44.07
2023-03-05T17:35:47.651Z,44.15
2023-03-05T17:38:14.402Z,44.17
2023-03-05T17:40:41.282Z,43.99
2023-03-05T17:43:08.314Z,44.02
2023-03-05T17:45:35.588Z,43.99
2023-03-05T17:48:03.104Z,44.08
2023-03-05T17:50:30.456Z,43.79
2023-03-05T17:52:57.169Z,43.73
2023-03-05T17:55:25.164Z,43.77
2023-03-05T17:57:52.827Z,43.92
2023-03-05T18:00:25.760Z,43.89
2023-03-05T18:02:53.673Z,43.95
2023-03-05T18:05:22.497Z,43.88
2023-03-05T18:07:50.131Z,43.57
2023-03-05T18:10:18.588Z,43.44
2023-03-05T18:12:45.653Z,43.66
2023-03-05T18:15:14.766Z,43.44
2023-03-05T18:17:42.113Z,43.44
2023-03-05T18:20:22.403Z,43.42
2023-03-05T18:22:49.111Z,43.14
2023-03-05T18:25:15.853Z,43.44
2023-03-05T18:27:42.597Z,43.23
2023-03-05T18:30:10.167Z,43.02
2023-03-05T18:32:36.912Z,42.91
2023-03-05T18:35:05.569Z,42.58
2023-03-05T18:37:32.163Z,42.09
2023-03-05T18:39:59.022Z,41.81
2023-03-05T18:42:25.800Z,41.70
2023-03-05T18:44:52.638Z,41.54
2023-03-05T18:47:19.477Z,41.94
2023-03-05T18:49:46.432Z,41.69
2023-03-05T18:52:13.364Z,42.10
2023-03-05T18:54:40.529Z,41.96
2023-03-05T18:57:08.484Z,41.93
2023-03-05T18:59:35.125Z,42.06
2023-03-05T19:02:01.765Z,42.04
2023-03-05T19:04:28.853Z,41.95
2023-03-05T19:06:55.765Z,41.60
2023-03-05T19:09:52.713Z,42.04
2023-03-05T19:12:21.094Z,41.89
2023-03-05T19:14:48.036Z,42.03
2023-03-05T19:17:15.293Z,42.17
2023-03-05T19:19:44.703Z,42.39
2023-03-05T19:22:11.952Z,42.20
2023-03-05T19:24:38.780Z,42.05
2023-03-05T19:27:13.006Z,41.90
2023-03-05T19:29:41.588Z,41.99
2023-03-05T19:32:13.686Z,41.65
2023-03-05T19:34:41.214Z,41.56
2023-03-05T19:37:08.061Z,41.68
2023-03-05T19:39:35.197Z,41.71
2023-03-05T19:42:03.184Z,42.01
2023-03-05T19:44:30.926Z,41.93
2023-03-05T19:46:57.679Z,42.21
2023-03-05T19:49:24.434Z,42.28
2023-03-05T19:51:51.249Z,42.46
2023-03-05T19:54:19.528Z,42.60
2023-03-05T19:56:48.297Z,42.74
2023-03-05T19:59:17.521Z,42.89
2023-03-05T20:01:45.214Z,42.90
2023-03-05T20:04:15.101Z,43.12
2023-03-05T20:06:45.040Z,43.11
2023-03-05T20:09:12.258Z,43.11
2023-03-05T20:11:40.796Z,42.87
2023-03-05T20:14:08.710Z,43.28
2023-03-05T20:16:37.302Z,43.57
2023-03-05T20:19:06.702Z,43.50
2023-03-05T20:21:38.607Z,43.79
2023-03-05T20:24:09.771Z,43.61
2023-03-05T20:26:38.414Z,43.41
2023-03-05T20:29:06.054Z,43.68
2023-03-05T20:31:36.279Z,43.23
2023-03-05T20:34:14.749Z,43.47
2023-03-05T20:36:41.735Z,43.82
2023-03-05T20:39:08.685Z,43.60
2023-03-05T20:41:37.381Z,43.72
2023-03-05T20:44:04.246Z,43.93
2023-03-05T20:46:33.965Z,43.51
2023-03-05T20:49:02.111Z,43.57
2023-03-05T20:51:38.757Z,43.03
2023-03-05T20:54:06.884Z,43.59
2023-03-05T20:56:34.727Z,43.02
2023-03-05T20:59:04.968Z,43.38
2023-03-05T21:01:34.856Z,43.30
2023-03-05T21:04:02.334Z,43.48
2023-03-05T21:06:30.337Z,43.35
2023-03-05T21:08:57.966Z,43.16
2023-03-05T21:11:25.812Z,43.40
2023-03-05T21:13:52.762Z,43.66
2023-03-05T21:16:23.367Z,43.60
2023-03-05T21:18:50.651Z,43.70
2023-03-05T21:21:18.121Z,43.41
2023-03-05T21:23:45.659Z,43.49
2023-03-05T21:26:13.514Z,43.57
2023-03-05T21:28:40.835Z,43.72
2023-03-05T21:31:19.327Z,43.80
2023-03-05T21:33:46.164Z,43.45
2023-03-05T21:36:12.987Z,43.66
2023-03-05T21:38:40.034Z,43.70
2023-03-05T21:41:06.660Z,43.91
2023-03-05T21:43:34.125Z,43.78
2023-03-05T21:46:02.443Z,43.82
2023-03-05T21:48:30.166Z,43.77
2023-03-05T21:50:57.712Z,43.76
2023-03-05T21:53:25.270Z,43.95
2023-03-05T21:56:10.165Z,43.95
2023-03-05T21:58:38.981Z,43.89
2023-03-05T22:01:05.556Z,43.76
2023-03-05T22:03:32.904Z,44.22
2023-03-05T22:06:00.177Z,44.13
2023-03-05T22:08:29.273Z,44.21
2023-03-05T22:10:56.019Z,44.31
2023-03-05T22:13:22.752Z,44.61
2023-03-05T22:15:54.778Z,44.84
2023-03-05T22:18:22.897Z,45.31
2023-03-05T22:20:50.158Z,46.02
2023-03-05T22:23:18.111Z,46.40
2023-03-05T22:25:44.948Z,46.88
2023-03-05T22:28:12.688Z,47.64
2023-03-05T22:30:44.042Z,47.55
2023-03-05T22:33:11.721Z,48.05
2023-03-05T22:35:40.247Z,48.18
2023-03-05T22:38:09.203Z,48.63
2023-03-05T22:40:38.707Z,48.09
2023-03-05T22:43:05.352Z,47.79
2023-03-05T22:45:32.302Z,47.63
2023-03-05T22:47:59.552Z,46.88
2023-03-05T22:50:26.610Z,46.55
2023-03-05T22:52:53.726Z,45.91
2023-03-05T22:55:20.990Z,45.97
2023-03-05T22:57:47.726Z,45.80
2023-03-05T23:00:20.783Z,45.54
2023-03-05T23:02:47.679Z,45.71
2023-03-05T23:05:14.727Z,45.75
2023-03-05T23:07:43.195Z,46.15
2023-03-05T23:10:13.094Z,46.18
2023-03-05T23:12:45.825Z,46.04
2023-03-05T23:15:22.226Z,46.01
2023-03-05T23:17:48.894Z,46.24
2023-03-05T23:20:17.388Z,46.36
2023-03-05T23:22:44.627Z,46.54
2023-03-05T23:25:12.965Z,46.77
2023-03-05T23:27:40.688Z,46.88
2023-03-05T23:30:20.681Z,46.78
2023-03-05T23:32:59.460Z,46.40
2023-03-05T23:35:30.644Z,46.78
2023-03-05T23:37:58.766Z,46.54
2023-03-05T23:40:28.019Z,46.80
2023-03-05T23:42:54.812Z,46.79
2023-03-05T23:45:23.283Z,47.16
2023-03-05T23:47:51.049Z,46.97
2023-03-05T23:50:30.209Z,47.00
2023-03-05T23:52:57.442Z,47.28
2023-03-05T23:55:27.254Z,46.99
2023-03-05T23:57:54.719Z,47.18
